Time;durP1;ratioP1;P1;durP2;ratioP2;P2;SDS_P1;SDS_P2;PMS_P1;PMS_P2;Temp;Humidity;BMP_temperature;BMP_pressure;BME280_temperature;BME280_humidity;BME280_pressure;Samples;Min_cycle;Max_cycle;Signal;HPM_P1;HPM_P2
2023/01/09 00:01:47;;;;;;;2.63;1.50;;;7.80;99.90;;;;;;5042154;28;20047;-87
2023/01/09 00:04:13;;;;;;;4.68;1.55;;;7.70;99.90;;;;;;5058780;28;20396;-86
2023/01/09 00:06:42;;;;;;;3.90;2.05;;;7.70;99.90;;;;;;5042124;28;20051;-85
2023/01/09 00:09:09;;;;;;;5.38;1.70;;;7.60;99.90;;;;;;5058983;28;20066;-85
2023/01/09 00:11:35;;;;;;;3.15;1.40;;;7.60;99.90;;;;;;5059456;28;20051;-85
2023/01/09 00:14:01;;;;;;;4.63;1.30;;;7.60;99.90;;;;;;5058715;28;20499;-85
2023/01/09 00:16:26;;;;;;;3.08;1.60;;;7.50;99.90;;;;;;5075120;28;20040;-85
2023/01/09 00:18:52;;;;;;;4.70;1.60;;;7.50;99.90;;;;;;5041593;28;20044;-85
2023/01/09 00:21:18;;;;;;;4.65;1.40;;;7.40;99.90;;;;;;5026128;28;20119;-85
2023/01/09 00:23:45;;;;;;;4.88;1.40;;;7.40;99.90;;;;;;5058591;28;20151;-85
2023/01/09 00:26:16;;;;;;;5.47;1.40;;;7.30;99.90;;;;;;5058164;28;20044;-85
2023/01/09 00:28:43;;;;;;;5.15;1.40;;;7.30;99.90;;;;;;5074392;28;20123;-85
2023/01/09 00:31:09;;;;;;;4.57;1.58;;;7.60;99.90;;;;;;5059312;28;20097;-85
2023/01/09 00:33:40;;;;;;;2.25;0.95;;;7.30;99.90;;;;;;5058760;28;20044;-85
2023/01/09 00:36:06;;;;;;;4.15;1.02;;;7.50;99.90;;;;;;5058423;28;20124;-85
2023/01/09 00:38:32;;;;;;;1.58;1.05;;;7.20;99.90;;;;;;5042131;28;20075;-85
2023/01/09 00:40:59;;;;;;;3.05;1.30;;;7.20;99.90;;;;;;5041769;28;20518;-85
2023/01/09 00:43:31;;;;;;;2.25;0.85;;;7.20;99.90;;;;;;5058710;28;20549;-85
2023/01/09 00:45:58;;;;;;;1.88;0.90;;;7.20;99.90;;;;;;5057204;28;20069;-85
2023/01/09 00:48:26;;;;;;;3.15;1.08;;;7.20;99.90;;;;;;5041748;28;20048;-85
2023/01/09 00:50:54;;;;;;;3.42;0.95;;;7.10;99.90;;;;;;5057786;28;20059;-85
2023/01/09 00:53:22;;;;;;;3.78;1.25;;;7.20;99.90;;;;;;5057848;28;20269;-85
2023/01/09 00:55:50;;;;;;;4.30;1.10;;;7.10;99.90;;;;;;5073744;28;20094;-85
2023/01/09 00:58:16;;;;;;;3.13;1.10;;;7.10;99.90;;;;;;5057545;28;20476;-85
2023/01/09 01:00:42;;;;;;;3.30;1.17;;;7.10;99.90;;;;;;5057827;28;20058;-85
2023/01/09 01:03:08;;;;;;;2.97;1.10;;;7.10;99.90;;;;;;5057522;28;20039;-85
2023/01/09 01:08:19;;;;;;;4.55;1.73;;;7.00;99.90;;;;;;5060564;28;20158;-85
2023/01/09 01:10:46;;;;;;;3.67;1.58;;;7.00;99.90;;;;;;5073975;28;20048;-85
2023/01/09 01:13:12;;;;;;;3.10;1.30;;;6.90;99.90;;;;;;5041167;28;20070;-85
2023/01/09 01:15:42;;;;;;;3.08;1.20;;;7.00;99.90;;;;;;5074012;28;20064;-86
2023/01/09 01:18:09;;;;;;;3.70;1.20;;;7.00;99.90;;;;;;5073250;28;20499;-85
2023/01/09 01:20:35;;;;;;;3.20;1.38;;;6.90;99.90;;;;;;5057688;28;20084;-85
2023/01/09 01:23:01;;;;;;;3.35;1.48;;;7.00;99.90;;;;;;5040732;28;20044;-85
2023/01/09 01:25:27;;;;;;;4.15;1.35;;;7.00;99.90;;;;;;5040980;28;20499;-85
2023/01/09 01:27:52;;;;;;;3.58;1.50;;;7.00;99.90;;;;;;5056924;28;20124;-85
2023/01/09 01:30:18;;;;;;;3.75;1.45;;;7.00;99.90;;;;;;5041868;28;20074;-85
2023/01/09 01:32:44;;;;;;;2.83;1.40;;;7.00;99.90;;;;;;5058624;28;20044;-85
2023/01/09 01:35:10;;;;;;;4.85;1.45;;;7.00;99.90;;;;;;5075005;28;20055;-85
2023/01/09 01:37:37;;;;;;;4.20;1.70;;;7.00;99.90;;;;;;5057401;28;20111;-85
2023/01/09 01:40:05;;;;;;;4.75;1.50;;;6.90;99.90;;;;;;5074635;28;20492;-85
2023/01/09 01:42:31;;;;;;;5.82;1.73;;;6.90;99.90;;;;;;5058345;28;20051;-85
2023/01/09 01:45:06;;;;;;;3.83;1.50;;;6.90;99.90;;;;;;5058169;28;20061;-85
2023/01/09 01:47:44;;;;;;;2.30;1.30;;;6.90;99.90;;;;;;5057493;28;20043;-85
2023/01/09 01:50:24;;;;;;;6.13;1.40;;;6.80;99.90;;;;;;5057635;28;20100;-86
2023/01/09 01:52:58;;;;;;;4.68;1.30;;;6.80;99.90;;;;;;5073201;28;20051;-85
2023/01/09 01:55:24;;;;;;;3.67;1.65;;;6.80;99.90;;;;;;5057772;28;20044;-86
2023/01/09 01:57:56;;;;;;;3.75;1.48;;;6.70;99.90;;;;;;5074196;28;20047;-85
2023/01/09 02:00:27;;;;;;;3.42;1.90;;;7.60;99.90;;;;;;5056743;28;20076;-85
2023/01/09 02:02:53;;;;;;;3.83;1.50;;;7.40;99.90;;;;;;5058034;28;20068;-86
2023/01/09 02:05:19;;;;;;;6.28;1.90;;;6.70;99.90;;;;;;5040676;28;20074;-85
2023/01/09 02:07:44;;;;;;;5.50;1.65;;;7.10;99.90;;;;;;5074496;28;20445;-86
2023/01/09 02:10:10;;;;;;;5.07;1.85;;;6.70;99.90;;;;;;5040271;28;20105;-86
2023/01/09 02:12:36;;;;;;;9.75;1.70;;;6.60;99.90;;;;;;5056461;28;20040;-86
2023/01/09 02:15:07;;;;;;;5.00;1.77;;;6.60;99.90;;;;;;5024459;28;20047;-85
2023/01/09 02:17:48;;;;;;;3.78;1.52;;;6.50;99.90;;;;;;5091043;28;20047;-85
2023/01/09 02:20:35;;;;;;;4.32;1.50;;;6.50;99.90;;;;;;5048863;28;20047;-86
2023/01/09 02:23:15;;;;;;;4.05;1.83;;;6.40;99.90;;;;;;5057235;28;20079;-85
2023/01/09 02:26:12;;;;;;;5.60;2.33;;;6.40;99.90;;;;;;5057268;28;20048;-85
2023/01/09 02:28:58;;;;;;;5.88;2.13;;;6.40;99.90;;;;;;5074140;28;20096;-85
2023/01/09 02:31:36;;;;;;;4.90;1.83;;;6.60;99.90;;;;;;5073741;28;20044;-85
2023/01/09 02:34:16;;;;;;;5.10;1.80;;;6.30;99.90;;;;;;5057362;28;20051;-85
2023/01/09 02:37:10;;;;;;;6.13;1.90;;;6.30;99.90;;;;;;5046001;28;20080;-84
2023/01/09 02:39:45;;;;;;;3.55;2.00;;;6.30;99.90;;;;;;5054413;28;20127;-85
2023/01/09 02:42:21;;;;;;;7.90;1.90;;;6.20;99.90;;;;;;5071264;28;20032;-86
2023/01/09 02:45:05;;;;;;;5.57;1.90;;;6.20;99.90;;;;;;5042334;28;20047;-85
2023/01/09 02:47:46;;;;;;;5.30;1.98;;;6.10;99.90;;;;;;5068554;28;20102;-85
2023/01/09 02:50:35;;;;;;;4.25;2.10;;;6.10;99.90;;;;;;5054158;28;20052;-85
2023/01/09 02:53:56;;;;;;;3.08;1.98;;;6.10;99.90;;;;;;5053496;28;20046;-85
2023/01/09 02:56:59;;;;;;;6.97;2.17;;;6.00;99.90;;;;;;4999155;28;20042;-86
2023/01/09 02:59:42;;;;;;;5.80;2.33;;;6.00;99.90;;;;;;5052091;28;20041;-86
2023/01/09 03:02:53;;;;;;;4.05;2.20;;;5.90;99.90;;;;;;5052839;28;20044;-85
2023/01/09 03:05:43;;;;;;;8.02;2.72;;;5.90;99.90;;;;;;5068398;28;20392;-85
2023/01/09 03:08:21;;;;;;;7.75;2.20;;;5.90;99.90;;;;;;5070484;28;20056;-86
2023/01/09 03:11:14;;;;;;;9.07;2.60;;;5.90;99.90;;;;;;5070193;28;20079;-86
2023/01/09 03:17:03;;;;;;;8.23;2.35;;;5.80;99.90;;;;;;5070150;28;20052;-86
2023/01/09 03:19:39;;;;;;;5.68;2.58;;;5.70;99.90;;;;;;5052781;28;20156;-86
2023/01/09 03:22:08;;;;;;;;;;;5.70;99.90;;;;;;5060687;28;20036;-85
2023/01/09 03:24:57;;;;;;;6.47;2.67;;;5.70;99.90;;;;;;5058239;28;19924;-85
2023/01/09 03:27:48;;;;;;;7.65;3.00;;;5.70;99.90;;;;;;5042481;28;20048;-85
2023/01/09 03:33:03;;;;;;;11.82;3.65;;;5.60;99.90;;;;;;5069884;28;20052;-85
2023/01/09 03:35:32;;;;;;;7.18;2.95;;;5.60;99.90;;;;;;5051436;28;20105;-85
2023/01/09 03:37:58;;;;;;;7.32;2.95;;;5.60;99.90;;;;;;5070190;28;20060;-85
2023/01/09 03:40:27;;;;;;;6.97;3.20;;;5.60;99.90;;;;;;5051000;28;20043;-85
2023/01/09 03:42:56;;;;;;;5.82;3.47;;;5.50;99.90;;;;;;5046973;28;20044;-85
2023/01/09 03:45:25;;;;;;;9.02;4.13;;;5.50;99.90;;;;;;5045555;28;20103;-85
2023/01/09 03:47:57;;;;;;;5.03;3.72;;;5.50;99.90;;;;;;5059922;28;20125;-85
2023/01/09 03:53:18;;;;;;;7.97;4.57;;;5.50;99.90;;;;;;4992694;28;20042;-86
2023/01/09 03:55:50;;;;;;;7.88;4.95;;;5.50;99.90;;;;;;4998976;28;20172;-85
2023/01/09 03:58:17;;;;;;;8.18;5.10;;;5.40;99.90;;;;;;4980547;28;20041;-85
2023/01/09 04:03:38;;;;;;;8.77;5.28;;;5.40;99.90;;;;;;4998991;28;20071;-85
2023/01/09 04:06:10;;;;;;;8.75;5.75;;;5.40;99.90;;;;;;4984425;28;20064;-86
2023/01/09 04:08:39;;;;;;;12.00;5.65;;;5.40;99.90;;;;;;5001689;28;20112;-85
2023/01/09 04:11:10;;;;;;;13.38;7.00;;;5.40;99.90;;;;;;4997740;28;20050;-85
2023/01/09 04:14:04;;;;;;;10.15;6.05;;;5.40;99.90;;;;;;4992353;28;20041;-85
2023/01/09 04:16:32;;;;;;;10.35;6.55;;;5.40;99.90;;;;;;5010701;28;20053;-85
2023/01/09 04:21:45;;;;;;;8.02;6.20;;;5.30;99.90;;;;;;4998475;28;20053;-85
2023/01/09 04:24:22;;;;;;;14.23;7.28;;;5.30;99.90;;;;;;4986720;28;20049;-86
2023/01/09 04:26:50;;;;;;;10.85;6.70;;;5.30;99.90;;;;;;4977065;28;20053;-86
2023/01/09 04:29:19;;;;;;;10.02;7.55;;;5.20;99.90;;;;;;5070945;28;20041;-86
2023/01/09 04:31:45;;;;;;;13.90;7.93;;;5.20;99.90;;;;;;5055204;28;20043;-86
2023/01/09 04:34:16;;;;;;;13.10;6.95;;;5.20;99.90;;;;;;5071733;28;20411;-86
2023/01/09 04:36:49;;;;;;;9.60;6.72;;;5.20;99.90;;;;;;5055623;28;20622;-85
2023/01/09 04:39:17;;;;;;;12.55;7.53;;;5.20;99.90;;;;;;5054661;28;20041;-86
2023/01/09 04:41:49;;;;;;;10.93;7.45;;;5.10;99.90;;;;;;5054721;28;20047;-86
2023/01/09 04:44:20;;;;;;;12.05;7.68;;;5.10;99.90;;;;;;5071215;28;20047;-86
2023/01/09 04:46:49;;;;;;;11.80;8.02;;;5.00;99.90;;;;;;5071871;28;20627;-85
2023/01/09 04:49:15;;;;;;;14.43;7.85;;;5.00;99.90;;;;;;5074770;28;20056;-86
2023/01/09 04:54:29;;;;;;;15.93;8.35;;;4.90;99.90;;;;;;5060590;28;20042;-86
2023/01/09 04:56:55;;;;;;;15.43;9.57;;;4.90;99.90;;;;;;5058256;28;20110;-86
2023/01/09 04:59:29;;;;;;;12.77;8.80;;;4.90;99.90;;;;;;5041205;28;20048;-86
2023/01/09 05:02:07;;;;;;;14.80;9.35;;;4.80;99.90;;;;;;5059617;28;20479;-86
2023/01/09 05:07:57;;;;;;;14.77;9.30;;;4.80;99.90;;;;;;5075272;28;20122;-86
2023/01/09 05:10:28;;;;;;;14.75;10.18;;;4.80;99.90;;;;;;5058368;28;20663;-85
2023/01/09 05:13:19;;;;;;;14.32;10.30;;;4.80;99.90;;;;;;5058896;28;20036;-85
2023/01/09 05:15:57;;;;;;;15.93;10.43;;;4.80;99.90;;;;;;5072723;28;20079;-86
2023/01/09 05:18:26;;;;;;;14.60;10.07;;;4.80;99.90;;;;;;5058309;28;20035;-85
2023/01/09 05:21:39;;;;;;;13.10;9.85;;;4.80;99.90;;;;;;5058291;28;20044;-85
2023/01/09 05:24:10;;;;;;;13.27;10.07;;;4.80;99.90;;;;;;5064995;28;20040;-85
2023/01/09 05:26:39;;;;;;;15.05;10.45;;;4.80;99.90;;;;;;5048863;28;20094;-85
2023/01/09 05:29:07;;;;;;;16.88;10.88;;;4.80;99.90;;;;;;5055896;28;20080;-86
2023/01/09 05:31:33;;;;;;;20.35;11.85;;;4.80;99.90;;;;;;5040898;28;20160;-85
2023/01/09 05:34:02;;;;;;;12.93;10.55;;;4.80;99.90;;;;;;5057656;28;20111;-85
2023/01/09 05:36:30;;;;;;;14.63;9.05;;;4.80;99.90;;;;;;5056842;28;20127;-86
2023/01/09 05:39:04;;;;;;;15.18;10.57;;;4.80;99.90;;;;;;5048708;28;20062;-85
2023/01/09 05:41:41;;;;;;;13.63;9.02;;;4.80;99.90;;;;;;5040683;28;20044;-85
2023/01/09 05:44:12;;;;;;;16.65;8.85;;;4.80;99.90;;;;;;5055536;28;20048;-86
2023/01/09 05:49:47;;;;;;;13.98;9.43;;;4.70;99.90;;;;;;5070300;28;20048;-86
2023/01/09 05:52:16;;;;;;;12.70;8.93;;;5.40;99.90;;;;;;5064875;28;20050;-85
2023/01/09 05:54:52;;;;;;;15.15;9.02;;;4.70;99.90;;;;;;5056531;28;20039;-86
2023/01/09 06:06:11;;;;;;;13.60;8.23;;;4.60;99.90;;;;;;5060171;28;20040;-86
2023/01/09 06:08:55;;;;;;;16.98;8.25;;;4.60;99.90;;;;;;5071952;28;20040;-86
2023/01/09 06:11:53;;;;;;;11.30;5.80;;;4.50;99.90;;;;;;5056997;28;20048;-86
2023/01/09 06:14:20;;;;;;;13.13;6.82;;;4.60;99.90;;;;;;5057230;28;20047;-86
2023/01/09 06:16:46;;;;;;;11.90;7.35;;;4.60;99.90;;;;;;5072994;28;20048;-86
2023/01/09 06:19:22;;;;;;;11.05;8.15;;;4.60;99.90;;;;;;5056297;28;20040;-86
2023/01/09 06:25:00;;;;;;;8.60;5.28;;;4.60;99.90;;;;;;5059025;28;20043;-86
2023/01/09 06:27:56;;;;;;;11.93;6.22;;;4.70;99.90;;;;;;5058079;28;20123;-86
2023/01/09 06:30:24;;;;;;;9.15;6.05;;;4.70;99.90;;;;;;5071019;28;20044;-86
2023/01/09 06:32:50;;;;;;;13.35;5.70;;;4.70;99.90;;;;;;5055337;28;20150;-86
2023/01/09 06:35:41;;;;;;;11.07;6.13;;;4.80;99.90;;;;;;5071643;28;20066;-86
2023/01/09 06:38:32;;;;;;;9.40;5.43;;;4.80;99.90;;;;;;5055344;28;20032;-86
2023/01/09 06:41:15;;;;;;;8.02;4.78;;;4.90;99.90;;;;;;5044435;28;20040;-86
2023/01/09 06:44:26;;;;;;;;;;;;;;;;;;;;;
2023/01/09 06:46:58;;;;;;;13.18;5.10;;;5.00;99.90;;;;;;5000272;28;20494;-86
2023/01/09 06:56:26;;;;;;;9.98;4.53;;;5.20;99.90;;;;;;5010303;28;20042;-86
2023/01/09 06:58:55;;;;;;;9.93;4.53;;;5.20;99.90;;;;;;4994186;28;20042;-86
2023/01/09 07:01:20;;;;;;;10.50;5.13;;;5.20;99.90;;;;;;5003475;28;20527;-86
2023/01/09 07:03:55;;;;;;;8.73;4.13;;;5.30;99.90;;;;;;4993396;28;20041;-85
2023/01/09 07:06:30;;;;;;;9.27;4.40;;;5.30;99.90;;;;;;4979392;28;20070;-86
2023/01/09 07:09:05;;;;;;;8.43;4.78;;;5.40;99.90;;;;;;4995277;28;20045;-86
2023/01/09 07:11:31;;;;;;;11.27;5.00;;;5.40;99.90;;;;;;4995487;28;20052;-87
2023/01/09 07:14:13;;;;;;;10.52;4.60;;;5.40;99.90;;;;;;5025846;28;20412;-87
2023/01/09 07:16:51;;;;;;;10.70;4.97;;;5.30;99.90;;;;;;5034895;28;20129;-87
2023/01/09 07:19:17;;;;;;;8.98;4.88;;;5.40;99.90;;;;;;5056985;28;20044;-86
2023/01/09 07:21:43;;;;;;;7.30;4.55;;;5.40;99.90;;;;;;5042978;28;20435;-86
2023/01/09 07:24:09;;;;;;;10.10;4.88;;;5.40;99.90;;;;;;5052217;28;20054;-86
2023/01/09 07:29:34;;;;;;;8.15;4.57;;;5.50;99.90;;;;;;5052595;28;20047;-86
2023/01/09 07:32:17;;;;;;;7.00;4.28;;;5.50;99.90;;;;;;5051114;28;20424;-86
2023/01/09 07:34:45;;;;;;;9.52;4.80;;;5.50;99.90;;;;;;5018363;28;20036;-86
2023/01/09 07:43:13;;;;;;;8.07;4.95;;;5.50;99.90;;;;;;5051392;28;20040;-87
2023/01/09 07:45:44;;;;;;;11.93;4.90;;;5.50;99.90;;;;;;5051877;28;20037;-87
2023/01/09 07:48:42;;;;;;;8.18;4.75;;;5.50;99.90;;;;;;5057011;28;20063;-87
2023/01/09 07:51:21;;;;;;;8.32;4.47;;;5.50;99.90;;;;;;5068431;28;20123;-86
2023/01/09 07:53:53;;;;;;;9.40;4.70;;;5.50;99.90;;;;;;5051903;28;20047;-83
2023/01/09 07:59:14;;;;;;;8.70;3.92;;;5.50;99.90;;;;;;5070450;28;20155;-87
2023/01/09 08:01:43;;;;;;;;;;;5.60;99.90;;;;;;5055921;28;20041;-86
2023/01/09 08:04:32;;;;;;;11.27;3.90;;;5.50;99.90;;;;;;5054776;28;20284;-87
2023/01/09 08:10:37;;;;;;;9.40;3.65;;;5.60;99.90;;;;;;5049640;28;20055;-86
2023/01/09 08:24:37;;;;;;;10.65;3.75;;;5.70;99.90;;;;;;5071195;28;20052;-87
2023/01/09 08:27:09;;;;;;;9.57;3.67;;;5.70;99.90;;;;;;5053572;28;20033;-86
2023/01/09 08:35:26;;;;;;;8.07;4.43;;;5.70;99.90;;;;;;5058339;28;20041;-86
2023/01/09 08:37:52;;;;;;;6.93;2.85;;;5.80;99.90;;;;;;5071215;28;20044;-86
2023/01/09 08:40:29;;;;;;;12.45;4.13;;;5.70;99.90;;;;;;5054202;28;20102;-86
2023/01/09 08:47:04;;;;;;;10.13;3.42;;;5.80;99.90;;;;;;5070201;28;20040;-86
2023/01/09 08:51:50;;;;;;;5.97;3.30;;;5.80;99.90;;;;;;5042366;28;20048;-86
2023/01/09 08:54:16;;;;;;;9.63;3.00;;;5.90;99.90;;;;;;5053945;28;20044;-86
2023/01/09 08:56:49;;;;;;;7.75;2.88;;;5.90;99.90;;;;;;5053389;28;20040;-87
2023/01/09 09:02:09;;;;;;;6.05;3.30;;;6.00;99.90;;;;;;5047158;28;20036;-87
2023/01/09 09:04:37;;;;;;;4.93;2.92;;;6.60;99.90;;;;;;5053660;28;20090;-86
2023/01/09 09:10:19;;;;;;;5.40;2.78;;;6.10;99.90;;;;;;5070455;28;20047;-85
2023/01/09 09:12:55;;;;;;;7.22;2.97;;;6.10;99.90;;;;;;5070896;28;20097;-86
2023/01/09 09:19:10;;;;;;;7.32;3.15;;;6.10;99.90;;;;;;5065509;28;20044;-87
2023/01/09 09:22:08;;;;;;;7.32;2.70;;;6.20;99.90;;;;;;5052633;28;20041;-87
2023/01/09 09:24:36;;;;;;;7.50;2.72;;;6.10;99.90;;;;;;5067410;28;20041;-87
2023/01/09 09:29:57;;;;;;;9.82;3.65;;;6.20;99.90;;;;;;5052071;28;20134;-87
2023/01/09 09:32:46;;;;;;;10.55;3.22;;;6.10;99.90;;;;;;5053264;28;20040;-86
2023/01/09 09:35:16;;;;;;;10.45;3.13;;;6.20;99.90;;;;;;5073536;28;20036;-87
2023/01/09 09:47:44;;;;;;;10.20;3.17;;;6.20;99.90;;;;;;5069810;28;20043;-84
2023/01/09 09:53:50;;;;;;;7.60;2.95;;;6.30;99.90;;;;;;5076843;28;20081;-84
2023/01/09 09:56:20;;;;;;;8.77;3.50;;;6.30;99.90;;;;;;5059320;28;20044;-84
2023/01/09 09:59:07;;;;;;;8.15;2.83;;;6.60;99.90;;;;;;5059916;28;20040;-84
2023/01/09 10:01:55;;;;;;;7.13;3.30;;;6.30;99.90;;;;;;5060318;28;20036;-84
2023/01/09 10:04:26;;;;;;;10.73;3.45;;;6.30;99.90;;;;;;5059296;28;20471;-88
2023/01/09 10:07:23;;;;;;;8.85;3.70;;;6.30;99.90;;;;;;5049349;28;20076;-86
2023/01/09 10:09:59;;;;;;;8.23;3.60;;;6.30;99.90;;;;;;5057907;28;20037;-85
2023/01/09 10:16:00;;;;;;;9.30;3.35;;;6.40;99.90;;;;;;5071020;28;20102;-89
2023/01/09 10:22:03;;;;;;;8.70;3.58;;;6.50;99.90;;;;;;5077709;28;20125;-89
2023/01/09 10:25:03;;;;;;;9.05;3.92;;;6.60;99.90;;;;;;5063006;28;20572;-88
2023/01/09 10:27:44;;;;;;;9.20;3.75;;;6.60;99.90;;;;;;5058565;28;20492;-89
2023/01/09 10:30:47;;;;;;;9.98;4.20;;;6.60;99.90;;;;;;5055401;28;20040;-89
2023/01/09 10:50:11;;;;;;;10.48;4.75;;;6.60;99.90;;;;;;5008309;28;20077;-90
2023/01/09 10:53:09;;;;;;;12.38;5.35;;;6.60;99.90;;;;;;5015818;28;20038;-89
2023/01/09 11:03:16;;;;;;;10.27;6.57;;;7.50;99.90;;;;;;4975181;28;20391;-90
2023/01/09 11:20:29;;;;;;;12.30;7.43;;;5.80;99.90;;;;;;4979099;28;20055;-91
2023/01/09 11:23:55;;;;;;;;;;;;;;;;;;;;;
2023/01/09 11:26:31;;;;;;;11.05;7.65;;;6.90;99.90;;;;;;4952624;28;20045;-87
2023/01/09 11:30:02;;;;;;;12.57;7.60;;;6.90;99.90;;;;;;4994355;28;20046;-89
2023/01/09 11:35:51;;;;;;;12.20;7.85;;;7.00;99.90;;;;;;5002525;28;20038;-89
2023/01/09 11:49:16;;;;;;;;;;;;;;;;;;;;;
2023/01/09 11:56:14;;;;;;;15.52;9.30;;;7.40;99.90;;;;;;4967789;28;20886;-89
2023/01/09 11:58:43;;;;;;;13.27;9.40;;;6.00;99.90;;;;;;5044900;28;20076;-86
2023/01/09 12:01:52;;;;;;;11.70;9.60;;;7.40;99.90;;;;;;5035467;28;20040;-85
2023/01/09 12:04:51;;;;;;;15.55;9.70;;;7.40;99.90;;;;;;5051110;28;20044;-86
2023/01/09 12:07:23;;;;;;;15.25;9.73;;;7.50;99.90;;;;;;5051392;28;20052;-85
2023/01/09 12:10:13;;;;;;;15.13;9.65;;;7.60;99.90;;;;;;5043032;28;20044;-85
2023/01/09 12:12:55;;;;;;;15.88;9.20;;;7.60;99.90;;;;;;5049190;28;20044;-85
2023/01/09 12:15:44;;;;;;;14.63;10.02;;;7.60;99.90;;;;;;5035385;28;20068;-85
2023/01/09 12:18:37;;;;;;;15.50;9.05;;;7.60;99.90;;;;;;5031228;28;20041;-85
2023/01/09 12:21:24;;;;;;;14.82;8.30;;;7.70;99.90;;;;;;5036132;28;20124;-86
2023/01/09 12:24:07;;;;;;;13.45;7.90;;;7.70;99.90;;;;;;5056219;28;20044;-85
2023/01/09 12:27:13;;;;;;;11.82;8.20;;;7.70;99.90;;;;;;5045756;28;20116;-85
2023/01/09 12:30:29;;;;;;;9.57;7.45;;;7.70;99.90;;;;;;5036104;28;20040;-85
2023/01/09 12:33:31;;;;;;;10.32;7.22;;;7.70;99.90;;;;;;4960156;28;20114;-86
2023/01/09 12:42:51;;;;;;;12.27;7.03;;;7.70;99.90;;;;;;5053426;28;20041;-85
2023/01/09 12:45:46;;;;;;;15.43;6.70;;;7.70;99.90;;;;;;5058427;28;20102;-84
2023/01/09 12:48:55;;;;;;;12.23;6.10;;;7.70;99.90;;;;;;5068151;28;20063;-88
2023/01/09 12:51:38;;;;;;;12.32;5.80;;;7.70;99.90;;;;;;5057872;28;20663;-86
2023/01/09 12:54:22;;;;;;;12.20;5.32;;;7.70;99.90;;;;;;5060399;28;20097;-85
2023/01/09 12:57:01;;;;;;;12.48;5.93;;;7.70;99.90;;;;;;5061501;28;20040;-85
2023/01/09 12:59:34;;;;;;;11.30;5.40;;;7.70;99.90;;;;;;5069937;28;20511;-85
2023/01/09 13:02:29;;;;;;;9.82;4.82;;;7.70;99.90;;;;;;5073013;28;20741;-85
2023/01/09 13:05:24;;;;;;;14.80;4.35;;;7.70;99.90;;;;;;5063161;28;20050;-84
2023/01/09 13:07:55;;;;;;;9.38;4.35;;;7.70;99.90;;;;;;5062821;28;20048;-85
2023/01/09 13:10:49;;;;;;;14.95;4.35;;;7.80;99.90;;;;;;5058750;28;20066;-85
2023/01/09 13:13:26;;;;;;;7.97;3.72;;;7.90;99.90;;;;;;5073347;28;20069;-86
2023/01/09 13:16:17;;;;;;;12.60;3.67;;;8.00;99.90;;;;;;5058979;28;20058;-85
2023/01/09 13:18:54;;;;;;;8.75;2.75;;;8.20;99.90;;;;;;5062508;28;20047;-86
2023/01/09 13:21:27;;;;;;;17.23;3.17;;;8.30;99.90;;;;;;5060334;28;20024;-85
2023/01/09 13:24:29;;;;;;;11.13;3.08;;;8.40;99.90;;;;;;5060610;28;20089;-85
2023/01/09 13:27:00;;;;;;;11.10;3.00;;;8.40;99.90;;;;;;5055301;28;20489;-85
2023/01/09 13:29:35;;;;;;;7.85;2.50;;;8.50;99.90;;;;;;5057930;28;20048;-86
2023/01/09 13:32:19;;;;;;;12.13;2.65;;;8.50;99.90;;;;;;5052941;28;20522;-84
2023/01/09 13:34:56;;;;;;;15.27;2.50;;;8.50;99.90;;;;;;5074909;28;20113;-85
2023/01/09 13:37:26;;;;;;;11.68;2.50;;;8.40;99.90;;;;;;5059227;28;20036;-86
2023/01/09 13:40:06;;;;;;;10.75;2.75;;;8.30;99.90;;;;;;5058399;28;20109;-85
2023/01/09 13:42:37;;;;;;;15.85;2.80;;;8.20;99.90;;;;;;5057161;28;20079;-85
2023/01/09 13:45:31;;;;;;;9.52;2.80;;;8.20;99.90;;;;;;5057685;28;20076;-86
2023/01/09 13:48:45;;;;;;;11.75;2.70;;;8.20;99.90;;;;;;5068175;28;20060;-85
2023/01/09 13:51:58;;;;;;;7.82;2.65;;;8.20;99.90;;;;;;5069371;28;20101;-85
2023/01/09 13:54:56;;;;;;;9.50;2.58;;;8.30;99.90;;;;;;5072798;28;20056;-85
2023/01/09 13:57:44;;;;;;;8.20;2.10;;;8.50;99.90;;;;;;5072811;28;20084;-85
2023/01/09 14:00:30;;;;;;;12.82;2.50;;;8.60;99.90;;;;;;5060492;28;20415;-85
2023/01/09 14:03:02;;;;;;;12.80;2.50;;;8.60;99.90;;;;;;5061938;28;20036;-86
2023/01/09 14:05:31;;;;;;;13.55;3.10;;;8.60;99.90;;;;;;5060607;28;20492;-86
2023/01/09 14:08:11;;;;;;;15.27;2.70;;;8.70;99.90;;;;;;5060006;28;20048;-85
2023/01/09 14:10:46;;;;;;;8.82;2.60;;;8.60;99.90;;;;;;5058867;28;20036;-85
2023/01/09 14:13:16;;;;;;;11.75;2.53;;;8.60;99.90;;;;;;5055736;28;20028;-85
2023/01/09 14:15:51;;;;;;;9.85;2.70;;;8.50;99.90;;;;;;5074574;28;20111;-85
2023/01/09 14:18:24;;;;;;;10.43;2.85;;;8.60;99.90;;;;;;5061520;28;20063;-90
2023/01/09 14:22:03;;;;;;;11.85;2.40;;;8.50;99.90;;;;;;5064498;28;20031;-91
2023/01/09 14:25:08;;;;;;;10.50;3.13;;;8.50;99.90;;;;;;5020517;28;20091;-91
2023/01/09 14:28:15;;;;;;;15.70;3.75;;;8.10;99.90;;;;;;5034983;28;20059;-91
2023/01/09 14:31:03;;;;;;;13.48;2.65;;;8.30;99.90;;;;;;5056186;28;20047;-89
2023/01/09 14:34:09;;;;;;;13.20;2.72;;;8.30;99.90;;;;;;5059443;28;20046;-92
2023/01/09 14:37:52;;;;;;;13.73;2.97;;;8.60;99.90;;;;;;5057400;28;20040;-87
2023/01/09 14:40:05;;;;;;;9.50;2.80;;;8.20;99.90;;;;;;5063776;28;20044;-87
2023/01/09 14:42:41;;;;;;;8.05;2.80;;;8.20;99.90;;;;;;5073721;28;20064;-87
2023/01/09 14:45:22;;;;;;;12.07;2.85;;;8.20;99.90;;;;;;5057349;28;20039;-87
2023/01/09 14:48:18;;;;;;;13.60;3.17;;;8.10;99.90;;;;;;5059459;28;20115;-87
2023/01/09 14:54:39;;;;;;;14.48;3.70;;;8.00;99.90;;;;;;5062055;28;20047;-88
2023/01/09 14:57:32;;;;;;;12.95;2.85;;;8.00;99.90;;;;;;5053485;28;20066;-88
2023/01/09 15:00:33;;;;;;;9.18;2.53;;;7.90;99.90;;;;;;5047591;28;20097;-88
2023/01/09 15:03:48;;;;;;;6.55;2.05;;;7.90;99.90;;;;;;5060676;28;20040;-87
2023/01/09 15:06:31;;;;;;;12.70;3.10;;;8.10;99.90;;;;;;5050046;28;20044;-88
2023/01/09 15:09:16;;;;;;;9.25;2.55;;;7.90;99.90;;;;;;5074134;28;20040;-87
2023/01/09 15:12:04;;;;;;;8.75;2.70;;;7.90;99.90;;;;;;5046540;28;20036;-87
2023/01/09 15:15:01;;;;;;;14.95;3.22;;;7.80;99.90;;;;;;5056227;28;20162;-86
2023/01/09 15:17:53;;;;;;;10.70;2.50;;;7.80;99.90;;;;;;5056223;28;20090;-88
2023/01/09 15:20:30;;;;;;;10.98;2.30;;;7.80;99.90;;;;;;5061603;28;20040;-87
2023/01/09 15:23:02;;;;;;;10.05;2.38;;;7.70;99.90;;;;;;5052221;28;20044;-87
2023/01/09 15:26:16;;;;;;;12.25;2.90;;;7.70;99.90;;;;;;5058172;28;20036;-87
2023/01/09 15:29:34;;;;;;;12.48;2.90;;;7.70;99.90;;;;;;5064634;28;20048;-87
2023/01/09 15:35:36;;;;;;;14.27;2.80;;;7.80;99.90;;;;;;5073006;28;20040;-86
2023/01/09 15:38:02;;;;;;;15.00;2.80;;;7.70;99.90;;;;;;5058638;28;20062;-87
2023/01/09 15:40:33;;;;;;;18.67;3.58;;;7.70;99.90;;;;;;5062103;28;20535;-87
2023/01/09 15:43:06;;;;;;;16.00;3.65;;;7.70;99.90;;;;;;5058454;28;20063;-87
2023/01/09 15:45:46;;;;;;;13.18;2.80;;;7.70;99.90;;;;;;5053246;28;20214;-87
2023/01/09 15:48:33;;;;;;;12.27;2.60;;;7.70;99.90;;;;;;5051690;28;20064;-87
2023/01/09 15:51:18;;;;;;;12.55;2.97;;;7.70;99.90;;;;;;5058562;28;20155;-86
2023/01/09 15:57:53;;;;;;;14.32;3.10;;;7.70;99.90;;;;;;5033901;28;20045;-89
2023/01/09 16:04:14;;;;;;;14.80;3.33;;;7.60;99.90;;;;;;5030248;28;20034;-89
2023/01/09 16:06:53;;;;;;;13.60;2.85;;;7.70;99.90;;;;;;5002342;28;20065;-90
2023/01/09 16:09:26;;;;;;;18.02;3.22;;;7.60;99.90;;;;;;5005682;28;20049;-89
2023/01/09 16:12:00;;;;;;;15.93;3.35;;;7.60;99.90;;;;;;4991682;28;20042;-86
2023/01/09 16:14:44;;;;;;;16.77;3.50;;;7.60;99.90;;;;;;5020580;28;20082;-86
2023/01/09 16:17:18;;;;;;;12.68;3.60;;;7.60;99.90;;;;;;5061770;28;20036;-86
2023/01/09 16:20:25;;;;;;;15.63;3.22;;;7.90;99.90;;;;;;5058534;28;20040;-86
2023/01/09 16:22:57;;;;;;;12.00;3.00;;;7.50;99.90;;;;;;5059566;28;20555;-85
2023/01/09 16:25:35;;;;;;;19.33;4.20;;;7.40;99.90;;;;;;5042470;28;20056;-82
2023/01/09 16:28:19;;;;;;;16.38;4.22;;;7.40;99.90;;;;;;5062016;28;20072;-85
2023/01/09 16:31:47;;;;;;;18.10;4.20;;;7.40;99.90;;;;;;5061619;28;20048;-85
2023/01/09 16:34:11;;;;;;;19.70;3.75;;;7.30;99.90;;;;;;5073747;28;20193;-85
2023/01/09 16:36:40;;;;;;;14.40;2.63;;;7.30;99.90;;;;;;5061346;28;20039;-85
2023/01/09 16:39:19;;;;;;;18.92;4.25;;;7.30;99.90;;;;;;5061049;28;20040;-85
2023/01/09 16:44:30;;;;;;;11.20;3.45;;;7.20;99.90;;;;;;5107688;28;20040;-84
2023/01/09 16:47:04;;;;;;;18.27;3.22;;;7.10;99.90;;;;;;5074319;28;20044;-85
2023/01/09 16:49:30;;;;;;;9.85;3.28;;;7.10;99.90;;;;;;5062896;28;20288;-86
2023/01/09 16:52:01;;;;;;;14.85;3.95;;;7.10;99.90;;;;;;5062133;28;20150;-85
2023/01/09 16:54:28;;;;;;;13.48;3.72;;;7.00;99.90;;;;;;5060993;28;20032;-84
2023/01/09 16:57:12;;;;;;;19.35;3.17;;;7.00;99.90;;;;;;5074491;28;20040;-83
2023/01/09 16:59:41;;;;;;;15.18;4.15;;;7.00;99.90;;;;;;5058228;28;20052;-81
2023/01/09 17:02:44;;;;;;;16.73;3.67;;;7.00;99.90;;;;;;5070260;28;20108;-81
2023/01/09 17:08:02;;;;;;;10.85;2.70;;;6.90;99.90;;;;;;5069965;28;20098;-82
2023/01/09 17:11:17;;;;;;;16.60;3.38;;;6.90;99.90;;;;;;5057325;28;20038;-82
2023/01/09 17:14:07;;;;;;;10.43;3.35;;;6.90;99.90;;;;;;5058010;28;20395;-82
2023/01/09 17:16:42;;;;;;;15.85;3.33;;;6.80;99.90;;;;;;5058902;28;20067;-82